Time;durP1;ratioP1;P1;durP2;ratioP2;P2;SDS_P1;SDS_P2;PMS_P1;PMS_P2;Temp;Humidity;BMP_temperature;BMP_pressure;BME280_temperature;BME280_humidity;BME280_pressure;Samples;Min_cycle;Max_cycle;Signal;HPM_P1;HPM_P2
2021/06/03 00:00:40;;;;;;;7.10;3.65;;;12.10;99.90;;;;;;4751759;30;20059;-90
2021/06/03 00:03:10;;;;;;;6.03;3.50;;;12.20;99.90;;;;;;4753341;30;20059;-91
2021/06/03 00:05:44;;;;;;;2.85;2.65;;;12.30;99.90;;;;;;4734052;30;20419;-88
2021/06/03 00:08:14;;;;;;;4.40;3.63;;;12.30;99.90;;;;;;4749631;30;20514;-91
2021/06/03 00:10:55;;;;;;;5.63;4.43;;;12.20;99.90;;;;;;4764773;30;20048;-89
2021/06/03 00:13:24;;;;;;;;;;;12.10;99.90;;;;;;4767358;29;20055;-90
2021/06/03 00:15:53;;;;;;;3.17;2.97;;;11.90;99.90;;;;;;4767394;30;19926;-92
2021/06/03 00:18:21;;;;;;;4.85;3.88;;;11.80;99.90;;;;;;4737374;30;20048;-90
2021/06/03 00:20:49;;;;;;;6.60;3.75;;;11.70;99.90;;;;;;4752580;30;20067;-90
2021/06/03 00:23:17;;;;;;;5.35;4.78;;;11.70;99.90;;;;;;4726112;30;20062;-90
2021/06/03 00:25:45;;;;;;;4.05;3.35;;;11.80;99.90;;;;;;4770495;30;20055;-90
2021/06/03 00:28:30;;;;;;;8.73;4.38;;;11.80;99.90;;;;;;4755215;30;20075;-92
2021/06/03 00:31:05;;;;;;;7.35;4.63;;;11.70;99.90;;;;;;4771840;30;20414;-90
2021/06/03 00:33:33;;;;;;;5.15;4.72;;;11.70;99.90;;;;;;4770623;30;20051;-89
2021/06/03 00:36:07;;;;;;;5.35;4.85;;;11.70;99.90;;;;;;4769687;30;20060;-90
2021/06/03 00:38:37;;;;;;;3.97;3.58;;;11.70;99.90;;;;;;4754531;30;20059;-91
2021/06/03 00:41:07;;;;;;;5.35;4.85;;;11.70;99.90;;;;;;4769659;30;20048;-91
2021/06/03 00:43:36;;;;;;;9.32;4.85;;;11.70;99.90;;;;;;4740474;30;20055;-90
2021/06/03 00:46:05;;;;;;;5.50;4.78;;;11.70;99.90;;;;;;4754776;30;20059;-91
2021/06/03 00:48:34;;;;;;;7.70;7.00;;;11.70;99.90;;;;;;4753484;30;20499;-90
2021/06/03 00:51:05;;;;;;;4.43;4.13;;;11.70;99.90;;;;;;4769659;30;20055;-90
2021/06/03 00:53:35;;;;;;;9.68;4.63;;;11.60;99.90;;;;;;4769316;30;20414;-90
2021/06/03 00:56:04;;;;;;;13.37;4.47;;;11.60;99.90;;;;;;4753969;30;20062;-90
2021/06/03 00:58:35;;;;;;;6.35;5.63;;;11.60;99.90;;;;;;4751105;30;20726;-90
2021/06/03 01:01:09;;;;;;;6.82;5.50;;;11.50;99.90;;;;;;4736128;30;20052;-90
2021/06/03 01:03:37;;;;;;;4.93;4.38;;;11.50;99.90;;;;;;4739039;30;20063;-89
2021/06/03 01:06:09;;;;;;;4.72;4.35;;;11.50;99.90;;;;;;4769192;30;20044;-90
2021/06/03 01:08:46;;;;;;;5.73;5.23;;;11.50;99.90;;;;;;4754026;30;20063;-90
2021/06/03 01:11:16;;;;;;;8.18;5.32;;;11.50;99.90;;;;;;4738143;30;20825;-90
2021/06/03 01:14:02;;;;;;;19.75;9.38;;;11.60;99.90;;;;;;4753251;30;20047;-78
2021/06/03 01:16:33;;;;;;;5.05;4.65;;;11.50;99.90;;;;;;4769420;30;20074;-90
2021/06/03 01:19:15;;;;;;;5.00;4.50;;;11.30;99.90;;;;;;4739410;30;20056;-90
2021/06/03 01:21:46;;;;;;;5.20;4.70;;;11.10;99.90;;;;;;4753561;30;20047;-89
2021/06/03 01:24:40;;;;;;;5.80;4.95;;;11.00;99.90;;;;;;4754276;30;20392;-90
2021/06/03 01:27:14;;;;;;;5.82;4.80;;;10.90;99.90;;;;;;4738921;30;20060;-90
2021/06/03 01:29:51;;;;;;;6.97;6.38;;;11.00;99.90;;;;;;4753743;30;20054;-90
2021/06/03 01:32:21;;;;;;;5.82;5.03;;;11.10;99.90;;;;;;4753293;30;20424;-90
2021/06/03 01:34:51;;;;;;;9.15;4.85;;;11.10;99.90;;;;;;4769033;30;20056;-90
2021/06/03 01:37:20;;;;;;;6.55;4.75;;;11.20;99.90;;;;;;4738788;30;20052;-91
2021/06/03 01:39:49;;;;;;;6.38;5.78;;;11.20;99.90;;;;;;4738297;30;20056;-90
2021/06/03 01:42:18;;;;;;;5.60;4.97;;;11.10;99.90;;;;;;4768935;30;20059;-90
2021/06/03 01:44:47;;;;;;;5.75;5.05;;;11.00;99.90;;;;;;4753024;30;20055;-90
2021/06/03 01:47:16;;;;;;;5.43;4.93;;;11.00;99.90;;;;;;4738981;30;20062;-90
2021/06/03 01:49:45;;;;;;;5.55;5.05;;;11.00;99.90;;;;;;4738523;30;20494;-90
2021/06/03 01:52:14;;;;;;;10.02;5.55;;;11.00;99.90;;;;;;4739001;30;20068;-90
2021/06/03 01:54:43;;;;;;;5.70;5.07;;;11.00;99.90;;;;;;4752726;30;20062;-89
2021/06/03 01:57:12;;;;;;;6.03;5.38;;;11.00;99.90;;;;;;4738357;30;20058;-89
2021/06/03 01:59:59;;;;;;;7.30;5.25;;;10.90;99.90;;;;;;4741099;30;20499;-89
2021/06/03 02:02:35;;;;;;;5.13;4.63;;;10.90;99.90;;;;;;4753063;30;20044;-90
2021/06/03 02:05:05;;;;;;;4.75;4.28;;;10.80;99.90;;;;;;4738441;30;20698;-89
2021/06/03 02:07:34;;;;;;;6.47;5.30;;;10.90;99.90;;;;;;4752883;30;20056;-89
2021/06/03 02:10:05;;;;;;;5.22;4.72;;;10.80;99.90;;;;;;4751713;30;20083;-78
2021/06/03 02:12:41;;;;;;;8.85;5.22;;;10.80;99.90;;;;;;4752391;30;20529;-90
2021/06/03 02:15:10;;;;;;;5.55;5.15;;;10.80;99.90;;;;;;4753670;30;20402;-90
2021/06/03 02:17:53;;;;;;;6.05;5.45;;;10.80;99.90;;;;;;4752858;30;20044;-89
2021/06/03 02:20:33;;;;;;;4.88;4.20;;;10.70;99.90;;;;;;4751858;30;20068;-89
2021/06/03 02:23:01;;;;;;;6.82;6.13;;;10.50;99.90;;;;;;4736682;30;20054;-89
2021/06/03 02:25:30;;;;;;;6.03;5.45;;;10.50;99.90;;;;;;4752064;30;20058;-90
2021/06/03 02:28:02;;;;;;;5.60;4.80;;;10.50;99.90;;;;;;4738232;30;20060;-90
2021/06/03 02:30:32;;;;;;;;;;;10.40;99.90;;;;;;4752421;30;20447;-89
2021/06/03 02:33:00;;;;;;;9.60;4.65;;;10.30;99.90;;;;;;4767952;30;20265;-90
2021/06/03 02:35:29;;;;;;;5.75;5.15;;;10.10;99.90;;;;;;4721611;30;20068;-89
2021/06/03 02:37:58;;;;;;;9.00;5.88;;;10.10;99.90;;;;;;4748884;30;20541;-89
2021/06/03 02:40:29;;;;;;;6.00;5.45;;;10.10;99.90;;;;;;4749914;30;20071;-88
2021/06/03 02:42:58;;;;;;;7.28;5.45;;;10.10;99.90;;;;;;4719246;30;20052;-89
2021/06/03 02:45:31;;;;;;;6.32;5.72;;;10.10;99.90;;;;;;4734073;30;20411;-89
2021/06/03 02:48:00;;;;;;;5.72;5.15;;;10.20;99.90;;;;;;4751129;30;20060;-90
2021/06/03 02:50:36;;;;;;;7.20;5.60;;;10.20;99.90;;;;;;4733342;30;20052;-90
2021/06/03 02:53:05;;;;;;;4.93;4.43;;;10.10;99.90;;;;;;4750271;30;20063;-90
2021/06/03 02:55:36;;;;;;;7.38;5.10;;;10.10;99.90;;;;;;4734636;30;20064;-90
2021/06/03 02:58:10;;;;;;;5.47;5.05;;;10.10;99.90;;;;;;4716916;30;20049;-91
2021/06/03 03:00:43;;;;;;;12.20;5.40;;;9.90;99.90;;;;;;4716326;30;20069;-89
2021/06/03 03:03:12;;;;;;;7.07;6.05;;;9.90;99.90;;;;;;4732613;30;20067;-89
2021/06/03 03:05:43;;;;;;;11.55;6.38;;;9.90;99.90;;;;;;4731802;30;20053;-90
2021/06/03 03:08:16;;;;;;;7.20;5.82;;;9.90;99.90;;;;;;4716615;30;20071;-89
2021/06/03 03:10:51;;;;;;;5.82;5.32;;;9.90;99.90;;;;;;4730986;30;20080;-89
2021/06/03 03:13:23;;;;;;;6.13;5.63;;;9.90;99.90;;;;;;4716768;30;20527;-89
2021/06/03 03:15:51;;;;;;;7.25;5.70;;;10.00;99.90;;;;;;4717179;30;20601;-89
2021/06/03 03:18:21;;;;;;;5.95;5.30;;;10.00;99.90;;;;;;4731058;30;20057;-77
2021/06/03 03:20:50;;;;;;;7.05;4.95;;;10.10;99.90;;;;;;4714915;30;20053;-89
2021/06/03 03:23:18;;;;;;;5.68;5.28;;;10.10;99.90;;;;;;4717240;30;20416;-90
2021/06/03 03:25:52;;;;;;;6.20;5.57;;;10.10;99.90;;;;;;4731326;30;20067;-90
2021/06/03 03:28:21;;;;;;;15.07;5.32;;;9.80;99.90;;;;;;4731598;30;20057;-89
2021/06/03 03:30:50;;;;;;;5.78;5.28;;;9.70;99.90;;;;;;4716602;30;20051;-89
2021/06/03 03:33:25;;;;;;;6.25;4.50;;;9.70;99.90;;;;;;4732386;30;20060;-90
2021/06/03 03:35:54;;;;;;;7.00;5.63;;;9.60;99.90;;;;;;4731255;30;20079;-90
2021/06/03 03:38:28;;;;;;;5.53;4.53;;;9.60;99.90;;;;;;4732485;30;20052;-91
2021/06/03 03:40:58;;;;;;;6.68;5.95;;;9.50;99.90;;;;;;4730392;30;20049;-90
2021/06/03 03:43:29;;;;;;;5.65;5.15;;;9.50;99.90;;;;;;4731164;30;20060;-89
2021/06/03 03:45:57;;;;;;;6.43;5.80;;;9.50;99.90;;;;;;4716179;30;20049;-89
2021/06/03 03:48:27;;;;;;;6.35;5.85;;;9.50;99.90;;;;;;4747969;30;20064;-88
2021/06/03 03:50:56;;;;;;;9.68;6.47;;;9.50;99.90;;;;;;4746948;30;20059;-88
2021/06/03 03:53:31;;;;;;;7.57;6.57;;;9.50;99.90;;;;;;4748281;30;20724;-88
2021/06/03 03:55:59;;;;;;;7.70;6.72;;;9.60;99.90;;;;;;4751314;30;20499;-90
2021/06/03 03:58:27;;;;;;;5.82;5.22;;;9.80;99.90;;;;;;4751612;30;20044;-89
2021/06/03 04:00:56;;;;;;;7.07;5.22;;;10.00;99.90;;;;;;4751415;30;20048;-89
2021/06/03 04:03:25;;;;;;;5.88;5.05;;;10.00;99.90;;;;;;4736468;30;20060;-89
2021/06/03 04:05:58;;;;;;;9.98;5.18;;;10.00;99.90;;;;;;4734492;30;20053;-90
2021/06/03 04:08:28;;;;;;;6.00;5.43;;;10.00;99.90;;;;;;4734463;30;20064;-90
2021/06/03 04:10:56;;;;;;;11.25;8.18;;;9.90;99.90;;;;;;4733591;30;20057;-88
2021/06/03 04:13:29;;;;;;;8.32;5.88;;;9.90;99.90;;;;;;4733441;30;20411;-88
2021/06/03 04:16:08;;;;;;;6.10;5.20;;;9.80;99.90;;;;;;4734792;30;20087;-89
2021/06/03 04:18:38;;;;;;;6.32;5.50;;;9.90;99.90;;;;;;4734659;30;20049;-90
2021/06/03 04:21:06;;;;;;;8.73;5.32;;;10.00;99.90;;;;;;4734617;30;20060;-90
2021/06/03 04:23:39;;;;;;;6.40;5.68;;;10.20;99.90;;;;;;4734286;30;20515;-90
2021/06/03 04:26:06;;;;;;;6.95;6.25;;;10.40;99.90;;;;;;4735200;30;20059;-89
2021/06/03 04:28:35;;;;;;;4.47;4.18;;;10.60;99.90;;;;;;4735510;30;20067;-89
2021/06/03 04:31:03;;;;;;;7.78;5.72;;;10.70;99.90;;;;;;4734829;30;20060;-89
2021/06/03 04:33:32;;;;;;;5.30;4.45;;;11.00;99.90;;;;;;4718939;30;20064;-90
2021/06/03 04:36:04;;;;;;;10.73;7.35;;;11.20;99.90;;;;;;4733284;30;20068;-90
2021/06/03 04:38:33;;;;;;;5.97;5.55;;;11.40;99.90;;;;;;4720033;30;20069;-89
2021/06/03 04:41:01;;;;;;;6.07;4.75;;;11.80;99.90;;;;;;4719301;30;20079;-90
2021/06/03 04:43:29;;;;;;;5.00;4.50;;;12.20;99.90;;;;;;4734485;30;20064;-90
2021/06/03 04:45:57;;;;;;;7.80;4.18;;;12.70;99.90;;;;;;4733606;30;20444;-89
2021/06/03 04:48:25;;;;;;;5.90;5.38;;;13.10;99.90;;;;;;4735669;30;20075;-89
2021/06/03 04:50:54;;;;;;;8.13;4.63;;;13.30;99.90;;;;;;4733584;30;20068;-89
2021/06/03 04:53:22;;;;;;;5.63;4.55;;;13.40;99.90;;;;;;4733328;30;20061;-91
2021/06/03 04:55:50;;;;;;;4.88;4.47;;;13.50;99.90;;;;;;4733695;30;20064;-89
2021/06/03 04:58:17;;;;;;;4.32;3.97;;;13.90;99.90;;;;;;4734749;30;20052;-89
2021/06/03 05:00:46;;;;;;;5.22;4.18;;;14.40;99.90;;;;;;4734434;30;20068;-89
2021/06/03 05:03:15;;;;;;;5.75;4.57;;;14.80;99.90;;;;;;4735280;30;20186;-90
2021/06/03 05:05:44;;;;;;;5.93;5.38;;;15.20;99.90;;;;;;4732384;30;20057;-90
2021/06/03 05:08:12;;;;;;;6.82;4.57;;;15.60;99.90;;;;;;4719736;30;20057;-90
2021/06/03 05:10:40;;;;;;;6.22;4.95;;;16.00;99.90;;;;;;4719981;30;20056;-90
2021/06/03 05:13:10;;;;;;;5.03;4.30;;;16.40;99.90;;;;;;4733289;30;20049;-90
2021/06/03 05:15:38;;;;;;;11.20;3.80;;;16.70;97.70;;;;;;4733860;30;20063;-89
2021/06/03 05:18:07;;;;;;;5.65;4.43;;;16.80;97.90;;;;;;4733388;30;20064;-90
2021/06/03 05:20:39;;;;;;;9.95;5.00;;;17.00;97.30;;;;;;4721808;30;20053;-94
2021/06/03 05:23:08;;;;;;;6.03;5.43;;;16.80;96.00;;;;;;4735590;30;20053;-93
2021/06/03 05:25:36;;;;;;;11.23;5.20;;;17.00;97.30;;;;;;4723258;30;20051;-93
2021/06/03 05:28:05;;;;;;;7.53;5.40;;;17.20;97.40;;;;;;4707740;30;20068;-92
2021/06/03 05:30:34;;;;;;;5.85;5.35;;;17.40;97.50;;;;;;4719685;30;20793;-91
2021/06/03 05:33:02;;;;;;;8.32;5.25;;;17.60;97.90;;;;;;4734175;30;20126;-91
2021/06/03 05:35:37;;;;;;;8.27;5.25;;;17.70;97.20;;;;;;4734818;30;20652;-92
2021/06/03 05:38:05;;;;;;;5.40;4.90;;;17.90;96.40;;;;;;4719910;30;20049;-93
2021/06/03 05:40:44;;;;;;;5.32;4.80;;;18.00;95.80;;;;;;4720528;30;20052;-93
2021/06/03 05:43:14;;;;;;;4.22;3.83;;;18.00;95.30;;;;;;4721282;30;20052;-94
2021/06/03 05:45:43;;;;;;;6.45;5.93;;;18.10;95.60;;;;;;4736106;30;20399;-93
2021/06/03 05:48:40;;;;;;;6.57;4.15;;;18.20;95.00;;;;;;4707374;30;20065;-91
2021/06/03 05:51:08;;;;;;;4.60;3.92;;;18.30;95.50;;;;;;4703730;30;20072;-93
2021/06/03 05:53:45;;;;;;;4.38;3.45;;;18.40;96.10;;;;;;4702938;30;20053;-91
2021/06/03 05:56:13;;;;;;;3.83;3.53;;;18.50;97.00;;;;;;4717424;30;20068;-92
2021/06/03 05:58:41;;;;;;;4.97;4.57;;;18.60;96.60;;;;;;4703493;30;20057;-91
2021/06/03 06:01:09;;;;;;;3.85;3.50;;;18.70;96.30;;;;;;4701946;30;20065;-92
2021/06/03 06:03:47;;;;;;;9.25;3.78;;;18.90;95.80;;;;;;4719362;30;20061;-92
2021/06/03 06:06:32;;;;;;;4.60;4.20;;;19.00;95.10;;;;;;4719898;30;20053;-92
2021/06/03 06:09:36;;;;;;;4.72;4.15;;;19.10;95.70;;;;;;4727828;30;20055;-93
2021/06/03 06:12:56;;;;;;;4.53;4.13;;;19.20;94.40;;;;;;4712837;30;20066;-92
2021/06/03 06:15:26;;;;;;;9.05;3.30;;;19.30;93.90;;;;;;4734121;30;20070;-92
2021/06/03 06:17:54;;;;;;;9.52;4.13;;;19.30;94.40;;;;;;4731969;30;20522;-92
2021/06/03 06:20:23;;;;;;;4.18;3.88;;;19.40;95.70;;;;;;4743657;30;20495;-92
2021/06/03 06:22:53;;;;;;;7.82;4.30;;;19.70;94.50;;;;;;4734077;30;20044;-92
2021/06/03 06:25:21;;;;;;;6.10;3.50;;;20.00;94.50;;;;;;4731868;30;20055;-90
2021/06/03 06:27:50;;;;;;;3.60;3.30;;;20.20;94.70;;;;;;4749705;30;20067;-90
2021/06/03 06:30:20;;;;;;;5.93;4.63;;;20.30;94.70;;;;;;4732870;30;20392;-91
2021/06/03 06:32:51;;;;;;;4.60;4.20;;;20.50;93.40;;;;;;4748388;30;20063;-91
2021/06/03 06:35:27;;;;;;;4.13;3.83;;;20.70;94.40;;;;;;4732271;30;20068;-90
2021/06/03 06:37:55;;;;;;;4.93;4.60;;;21.10;94.70;;;;;;4713280;30;20150;-91
2021/06/03 06:40:24;;;;;;;5.45;4.25;;;21.50;94.70;;;;;;4713934;30;20064;-92
2021/06/03 06:42:54;;;;;;;4.97;4.55;;;21.70;92.30;;;;;;4698512;30;20412;-90
2021/06/03 06:45:26;;;;;;;3.67;3.38;;;22.30;92.50;;;;;;4714053;30;20066;-92
2021/06/03 06:47:55;;;;;;;4.47;4.07;;;22.80;90.70;;;;;;4699351;30;20057;-90
2021/06/03 06:50:26;;;;;;;4.97;4.57;;;22.80;90.80;;;;;;4712019;30;20504;-88
2021/06/03 06:52:54;;;;;;;3.95;3.55;;;22.80;92.20;;;;;;4713558;30;20057;-89
2021/06/03 06:55:23;;;;;;;3.58;3.28;;;22.80;91.30;;;;;;4685264;30;20060;-90
2021/06/03 06:57:55;;;;;;;6.57;4.28;;;22.30;90.10;;;;;;4732341;30;20057;-90
2021/06/03 07:00:29;;;;;;;3.63;2.88;;;22.20;92.60;;;;;;4721192;30;20411;-92
2021/06/03 07:02:59;;;;;;;4.25;3.65;;;22.40;92.40;;;;;;4718202;30;20403;-88
2021/06/03 07:05:28;;;;;;;3.83;3.53;;;22.70;93.10;;;;;;4734086;30;20408;-89
2021/06/03 07:07:56;;;;;;;3.13;2.92;;;23.10;90.20;;;;;;4732576;30;20064;-91
2021/06/03 07:10:25;;;;;;;2.50;2.30;;;23.20;90.60;;;;;;4729338;30;20057;-86
2021/06/03 07:12:53;;;;;;;2.63;2.25;;;22.20;90.20;;;;;;4730308;30;20052;-85
2021/06/03 07:15:21;;;;;;;2.78;2.45;;;22.60;88.40;;;;;;4733249;30;20413;-85
2021/06/03 07:17:53;;;;;;;3.25;2.95;;;23.60;87.90;;;;;;4731851;30;20491;-89
2021/06/03 07:20:22;;;;;;;2.83;2.55;;;23.80;84.40;;;;;;4732368;30;20060;-88
2021/06/03 07:22:53;;;;;;;4.80;3.28;;;24.10;82.20;;;;;;4731865;30;20425;-88
2021/06/03 07:25:24;;;;;;;3.65;2.40;;;24.50;78.90;;;;;;4731499;30;20056;-88
2021/06/03 07:27:53;;;;;;;3.65;3.35;;;25.50;80.10;;;;;;4733152;30;20498;-89
2021/06/03 07:30:24;;;;;;;3.63;2.90;;;26.90;74.00;;;;;;4734156;30;20064;-88
2021/06/03 07:32:54;;;;;;;3.10;2.90;;;27.40;69.00;;;;;;4733717;30;20052;-86
2021/06/03 07:35:23;;;;;;;7.45;2.97;;;28.70;66.90;;;;;;4720206;30;20060;-87
2021/06/03 07:37:51;;;;;;;4.05;2.70;;;30.50;66.50;;;;;;4720217;30;20052;-87
2021/06/03 07:40:23;;;;;;;3.03;2.83;;;30.90;58.30;;;;;;4733898;30;20067;-84
2021/06/03 07:42:52;;;;;;;2.80;2.60;;;30.20;58.40;;;;;;4735799;30;20052;-85
2021/06/03 07:45:23;;;;;;;4.15;2.42;;;29.90;58.70;;;;;;4735446;30;20045;-85
2021/06/03 07:47:52;;;;;;;3.78;2.78;;;29.90;58.30;;;;;;4746412;30;20495;-86
2021/06/03 07:50:22;;;;;;;3.28;2.28;;;29.80;58.70;;;;;;4753242;30;20052;-87
2021/06/03 07:52:50;;;;;;;4.63;2.38;;;30.20;55.30;;;;;;4737586;30;20048;-91
2021/06/03 07:55:19;;;;;;;3.22;2.92;;;30.80;55.80;;;;;;4737512;30;20052;-87
2021/06/03 07:57:51;;;;;;;2.75;2.55;;;30.20;56.00;;;;;;4751907;30;20060;-87
2021/06/03 08:00:21;;;;;;;7.10;3.38;;;27.50;59.90;;;;;;4751790;30;20064;-85
2021/06/03 08:02:52;;;;;;;4.38;2.97;;;25.50;68.30;;;;;;4736580;30;20048;-87
2021/06/03 08:05:23;;;;;;;4.15;2.67;;;24.50;68.40;;;;;;4735182;30;20082;-85
2021/06/03 08:07:54;;;;;;;3.53;3.20;;;25.10;67.40;;;;;;4733661;30;20053;-85
2021/06/03 08:10:36;;;;;;;2.50;2.30;;;25.30;69.80;;;;;;4717041;30;20061;-84
2021/06/03 08:13:05;;;;;;;2.85;2.65;;;24.40;68.70;;;;;;4730902;30;20052;-85
2021/06/03 08:15:41;;;;;;;6.03;3.35;;;24.10;69.60;;;;;;4719653;30;20445;-87
2021/06/03 08:18:10;;;;;;;4.32;3.13;;;23.70;68.00;;;;;;4718102;30;20049;-87
2021/06/03 08:20:48;;;;;;;2.22;2.13;;;23.50;71.70;;;;;;4721847;30;20049;-88
2021/06/03 08:23:17;;;;;;;4.20;2.97;;;23.70;67.80;;;;;;4703331;30;20056;-87
2021/06/03 08:25:46;;;;;;;3.33;2.22;;;24.10;69.10;;;;;;4716810;30;20045;-85
2021/06/03 08:28:15;;;;;;;6.72;2.80;;;24.40;69.00;;;;;;4718188;30;20061;-86
2021/06/03 08:30:44;;;;;;;3.22;2.92;;;24.60;69.50;;;;;;4716339;30;20424;-86
2021/06/03 08:33:12;;;;;;;9.95;2.90;;;24.50;68.20;;;;;;4701780;30;20053;-86
2021/06/03 08:35:40;;;;;;;4.78;3.10;;;24.30;70.60;;;;;;4745230;30;20068;-84
2021/06/03 08:38:10;;;;;;;3.38;2.75;;;23.90;71.80;;;;;;4751832;30;20052;-85
2021/06/03 08:40:42;;;;;;;4.25;2.53;;;23.40;74.10;;;;;;4734517;30;20064;-85
2021/06/03 08:43:11;;;;;;;3.22;3.03;;;23.20;78.40;;;;;;4751413;30;20052;-84
2021/06/03 08:45:42;;;;;;;4.68;3.65;;;22.80;78.70;;;;;;4736227;30;20044;-86
2021/06/03 08:48:17;;;;;;;3.83;3.30;;;22.60;83.20;;;;;;4752769;30;20056;-85
2021/06/03 08:51:32;;;;;;;4.82;2.90;;;22.90;81.70;;;;;;4732002;30;20075;-85
2021/06/03 08:54:00;;;;;;;4.05;3.30;;;22.90;79.50;;;;;;4752173;30;20056;-87
2021/06/03 08:56:29;;;;;;;3.25;2.97;;;22.80;85.80;;;;;;4735377;30;20068;-87
2021/06/03 08:58:59;;;;;;;3.78;3.47;;;22.60;82.20;;;;;;4754736;30;20511;-86
2021/06/03 09:01:30;;;;;;;2.95;2.75;;;22.80;89.80;;;;;;4730372;30;20066;-89
2021/06/03 09:03:58;;;;;;;3.88;3.50;;;22.90;82.60;;;;;;4733173;30;20068;-88
2021/06/03 09:06:31;;;;;;;3.38;2.85;;;23.00;80.10;;;;;;4734807;30;20196;-85
2021/06/03 09:08:59;;;;;;;4.03;3.72;;;22.80;80.30;;;;;;4734670;30;20052;-84
2021/06/03 09:11:30;;;;;;;3.67;3.38;;;22.60;80.50;;;;;;4734072;30;20048;-89
2021/06/03 09:14:03;;;;;;;;;;;22.50;83.50;;;;;;4734966;30;20056;-88
2021/06/03 09:16:37;;;;;;;5.13;3.40;;;22.50;83.00;;;;;;4749555;30;19998;-87
2021/06/03 09:19:13;;;;;;;3.38;3.08;;;22.60;83.40;;;;;;4749578;30;20400;-89
2021/06/03 09:21:50;;;;;;;2.35;2.15;;;22.60;79.90;;;;;;4734154;30;20059;-83
2021/06/03 09:24:21;;;;;;;3.10;2.72;;;22.80;82.20;;;;;;4749542;30;20064;-87
2021/06/03 09:26:51;;;;;;;4.22;3.92;;;23.00;82.90;;;;;;4720080;30;20052;-87
2021/06/03 09:29:28;;;;;;;3.17;2.90;;;23.10;84.40;;;;;;4751555;30;20063;-86
2021/06/03 09:32:12;;;;;;;3.13;2.92;;;23.20;77.10;;;;;;4735764;30;20219;-86
2021/06/03 09:34:41;;;;;;;3.13;2.83;;;23.40;77.10;;;;;;4734733;30;20048;-87
2021/06/03 09:37:34;;;;;;;3.33;3.05;;;23.40;74.30;;;;;;4750670;30;20056;-88
2021/06/03 09:40:02;;;;;;;2.65;2.45;;;23.50;72.10;;;;;;4735671;30;20117;-87
2021/06/03 09:42:30;;;;;;;2.65;2.35;;;23.60;77.30;;;;;;4735656;30;20044;-86
2021/06/03 09:44:58;;;;;;;4.28;2.30;;;23.60;80.90;;;;;;4735768;30;20055;-88
2021/06/03 09:47:35;;;;;;;3.20;2.83;;;23.60;72.50;;;;;;4745353;30;20056;-88
2021/06/03 09:50:10;;;;;;;4.70;2.53;;;23.30;76.60;;;;;;4752786;30;20047;-87
2021/06/03 09:52:38;;;;;;;2.42;2.22;;;23.50;64.40;;;;;;4739233;30;20416;-86
2021/06/03 09:55:12;;;;;;;3.50;2.20;;;23.50;71.40;;;;;;4735668;30;20393;-89
2021/06/03 09:57:44;;;;;;;3.60;2.92;;;23.50;66.50;;;;;;4734194;30;20053;-88
2021/06/03 10:00:22;;;;;;;2.58;2.38;;;23.50;63.40;;;;;;4717866;30;20065;-86
2021/06/03 10:02:54;;;;;;;2.97;2.78;;;23.60;68.40;;;;;;4733239;30;20076;-84
2021/06/03 10:05:23;;;;;;;3.65;2.80;;;23.40;68.70;;;;;;4748684;30;20048;-88
2021/06/03 10:08:02;;;;;;;2.97;2.78;;;23.40;66.70;;;;;;4721073;30;20056;-89
2021/06/03 10:10:32;;;;;;;3.50;3.13;;;23.30;66.40;;;;;;4734227;30;20419;-88
2021/06/03 10:13:11;;;;;;;3.53;2.67;;;23.20;69.80;;;;;;4734830;30;20055;-87
2021/06/03 10:16:31;;;;;;;7.55;3.65;;;23.40;71.60;;;;;;4736217;30;20522;-90
2021/06/03 10:19:28;;;;;;;2.85;2.65;;;23.70;64.50;;;;;;4690203;30;20500;-88
2021/06/03 10:22:16;;;;;;;3.25;2.97;;;23.70;69.50;;;;;;4698599;30;20049;-85
2021/06/03 10:25:05;;;;;;;2.58;2.38;;;23.90;69.80;;;;;;4712286;30;20069;-85
2021/06/03 10:27:44;;;;;;;2.60;2.40;;;23.80;70.60;;;;;;4705566;30;20076;-86
2021/06/03 10:30:31;;;;;;;4.47;4.00;;;23.40;71.30;;;;;;4700715;30;20069;-76
2021/06/03 10:33:05;;;;;;;3.88;2.97;;;23.20;70.30;;;;;;4713043;30;20074;-77
2021/06/03 10:35:35;;;;;;;6.55;2.72;;;23.20;72.60;;;;;;4698181;30;20057;-79
2021/06/03 10:38:05;;;;;;;5.65;3.90;;;23.40;77.60;;;;;;4712595;30;20425;-77
2021/06/03 10:40:36;;;;;;;4.40;2.83;;;23.70;79.10;;;;;;4712217;30;20068;-78
2021/06/03 10:43:05;;;;;;;3.00;2.80;;;24.00;74.50;;;;;;4713468;30;20065;-78
2021/06/03 10:45:35;;;;;;;4.40;3.50;;;24.00;73.80;;;;;;4712837;30;20049;-80
2021/06/03 10:48:04;;;;;;;3.90;3.10;;;24.20;71.80;;;;;;4713009;30;20073;-78
2021/06/03 10:51:10;;;;;;;3.00;2.78;;;24.20;71.50;;;;;;4737068;30;20060;-89
2021/06/03 10:54:08;;;;;;;10.73;3.75;;;24.10;71.40;;;;;;4722388;30;20125;-87
2021/06/03 10:57:21;;;;;;;3.88;3.15;;;24.10;70.50;;;;;;4717782;30;20040;-89
2021/06/03 10:59:50;;;;;;;3.78;3.20;;;24.20;73.90;;;;;;4732150;30;20064;-89
2021/06/03 11:02:38;;;;;;;3.40;3.10;;;24.10;72.20;;;;;;4701492;30;20851;-88
2021/06/03 11:05:25;;;;;;;4.20;3.88;;;24.00;73.70;;;;;;4692728;30;20056;-86
2021/06/03 11:07:55;;;;;;;4.18;3.67;;;24.00;72.80;;;;;;4703592;30;20068;-85
2021/06/03 11:10:43;;;;;;;4.03;3.67;;;23.90;70.50;;;;;;4714681;30;20060;-90
2021/06/03 11:13:25;;;;;;;3.55;2.83;;;23.80;72.00;;;;;;4717868;30;20063;-85
2021/06/03 11:16:02;;;;;;;10.88;3.88;;;23.80;69.60;;;;;;4688588;30;20060;-86
2021/06/03 11:18:57;;;;;;;3.70;2.80;;;23.70;72.30;;;;;;4703155;30;20094;-88
2021/06/03 11:24:14;;;;;;;4.25;3.25;;;24.10;70.50;;;;;;4732552;30;20061;-87
2021/06/03 11:26:46;;;;;;;32.05;4.00;;;24.10;70.80;;;;;;4731316;30;20134;-88
2021/06/03 11:29:14;;;;;;;4.10;3.03;;;24.20;72.60;;;;;;4702805;30;20045;-89
2021/06/03 11:31:45;;;;;;;5.18;2.58;;;24.30;74.80;;;;;;4687676;30;20076;-89
2021/06/03 11:34:21;;;;;;;2.75;2.25;;;24.30;70.40;;;;;;4709165;30;20079;-85
2021/06/03 11:37:00;;;;;;;5.07;3.58;;;24.30;71.50;;;;;;4733938;30;20056;-88
2021/06/03 11:39:49;;;;;;;3.22;2.92;;;24.40;71.40;;;;;;4749854;30;20075;-88
2021/06/03 11:42:24;;;;;;;3.08;2.88;;;24.10;75.70;;;;;;4734350;30;20426;-89
2021/06/03 11:45:32;;;;;;;3.80;3.13;;;24.20;71.10;;;;;;4719069;30;20055;-88
2021/06/03 11:48:58;;;;;;;3.42;2.78;;;24.30;69.90;;;;;;4749417;30;20064;-90
2021/06/03 11:51:31;;;;;;;7.13;2.72;;;24.50;73.30;;;;;;4697570;30;20057;-89
2021/06/03 11:54:07;;;;;;;3.20;2.90;;;24.50;70.80;;;;;;4718753;30;20420;-89
2021/06/03 11:57:19;;;;;;;3.00;2.80;;;24.40;66.80;;;;;;4695182;30;20048;-87
2021/06/03 12:00:10;;;;;;;4.55;3.45;;;24.60;66.90;;;;;;4716634;30;20076;-85
2021/06/03 12:02:44;;;;;;;3.08;2.85;;;24.60;67.80;;;;;;4716273;30;20052;-86
2021/06/03 12:05:17;;;;;;;3.53;3.33;;;24.60;68.10;;;;;;4716064;30;20056;-90
2021/06/03 12:08:01;;;;;;;3.35;3.05;;;24.60;64.30;;;;;;4732464;30;20056;-91
2021/06/03 12:10:50;;;;;;;2.90;2.70;;;24.60;68.10;;;;;;4690601;30;20052;-87
2021/06/03 12:13:21;;;;;;;10.60;3.90;;;24.60;65.80;;;;;;4703929;30;20503;-86
2021/06/03 12:15:49;;;;;;;3.28;3.08;;;24.80;69.00;;;;;;4703695;30;20527;-87
2021/06/03 12:18:17;;;;;;;3.13;2.83;;;24.80;67.20;;;;;;4734880;30;20859;-77
2021/06/03 12:20:55;;;;;;;2.72;2.53;;;24.70;66.30;;;;;;4748501;30;20515;-78
2021/06/03 12:23:27;;;;;;;3.38;2.83;;;24.70;62.80;;;;;;4752726;30;20116;-78
2021/06/03 12:25:55;;;;;;;3.15;2.95;;;24.60;65.10;;;;;;4721716;30;20052;-77
2021/06/03 12:28:24;;;;;;;3.13;2.90;;;24.60;65.20;;;;;;4752492;30;20056;-77
2021/06/03 12:30:51;;;;;;;5.55;2.88;;;24.70;69.70;;;;;;4751878;30;20060;-81
2021/06/03 12:33:26;;;;;;;3.17;2.90;;;24.70;65.80;;;;;;4752099;30;20052;-79
2021/06/03 12:36:00;;;;;;;2.28;2.13;;;24.60;67.80;;;;;;4733545;30;20416;-81
2021/06/03 12:38:49;;;;;;;4.88;3.30;;;24.50;67.30;;;;;;4734105;30;20053;-81
2021/06/03 12:41:25;;;;;;;4.28;3.42;;;24.50;68.00;;;;;;4733574;30;20053;-81
2021/06/03 12:44:03;;;;;;;2.92;2.63;;;24.60;68.90;;;;;;4735224;30;20057;-81
2021/06/03 12:46:32;;;;;;;2.85;2.65;;;24.60;66.00;;;;;;4734643;30;20456;-78
2021/06/03 12:49:08;;;;;;;3.53;3.13;;;24.60;66.60;;;;;;4724929;30;20049;-81
2021/06/03 12:51:47;;;;;;;5.13;2.92;;;24.70;66.10;;;;;;4715263;30;20053;-81
2021/06/03 12:54:16;;;;;;;3.30;3.00;;;24.70;66.60;;;;;;4716952;30;20517;-78
2021/06/03 12:56:48;;;;;;;6.75;4.13;;;24.80;64.80;;;;;;4716380;30;20065;-79
2021/06/03 13:03:36;;;;;;;3.10;2.80;;;24.80;63.30;;;;;;4703642;30;20077;-87
2021/06/03 13:06:47;;;;;;;3.97;3.47;;;24.90;62.10;;;;;;4720961;30;20254;-88
2021/06/03 13:09:30;;;;;;;11.18;3.92;;;24.70;66.40;;;;;;4687960;30;20063;-87
2021/06/03 13:12:20;;;;;;;3.90;3.08;;;24.80;69.60;;;;;;4729735;30;20546;-89
2021/06/03 13:15:04;;;;;;;3.85;3.00;;;24.90;61.30;;;;;;4696156;30;20427;-87
2021/06/03 13:18:49;;;;;;;4.90;3.45;;;24.90;65.00;;;;;;4720294;30;20045;-90
2021/06/03 13:21:33;;;;;;;3.72;3.13;;;24.80;60.50;;;;;;4754802;24;20570;-88
2021/06/03 13:24:38;;;;;;;4.35;2.78;;;24.90;65.80;;;;;;4736964;30;20597;-88
2021/06/03 13:28:15;;;;;;;10.93;3.25;;;25.10;62.30;;;;;;4734434;30;20499;-88
2021/06/03 13:31:10;;;;;;;4.43;3.80;;;24.60;67.20;;;;;;4724785;30;20056;-83